createdAt,value
2022-09-28T00:04:08.048Z,0.90
2022-09-28T00:09:10.030Z,1.27
2022-09-28T00:14:06.294Z,0.73
2022-09-28T00:19:01.271Z,1.10
2022-09-28T00:24:13.885Z,1.23
2022-09-28T00:29:09.742Z,0.98
2022-09-28T00:34:05.214Z,1.80
2022-09-28T00:38:58.998Z,1.10
2022-09-28T00:43:53.062Z,1.10
2022-09-28T00:48:57.399Z,1.33
2022-09-28T00:53:52.536Z,0.95
2022-09-28T00:58:52.453Z,0.95
2022-09-28T01:03:49.166Z,0.90
2022-09-28T01:08:45.500Z,1.17
2022-09-28T01:13:41.392Z,0.90
2022-09-28T01:18:42.759Z,1.30
2022-09-28T01:23:45.116Z,1.05
2022-09-28T01:28:37.725Z,1.17
2022-09-28T01:33:40.156Z,1.45
2022-09-28T01:38:39.871Z,1.23
2022-09-28T01:43:38.204Z,1.42
2022-09-28T01:48:38.469Z,1.42
2022-09-28T01:53:46.163Z,1.30
2022-09-28T01:58:55.848Z,1.38
2022-09-28T02:03:55.804Z,1.20
2022-09-28T02:08:54.560Z,1.42
2022-09-28T02:14:12.812Z,1.38
2022-09-28T02:19:09.826Z,1.40
2022-09-28T02:24:29.506Z,1.63
2022-09-28T02:29:23.129Z,1.20
2022-09-28T02:34:19.741Z,1.33
2022-09-28T02:39:18.299Z,1.10
2022-09-28T02:44:38.390Z,1.30
2022-09-28T02:49:51.172Z,0.90
2022-09-28T02:54:53.557Z,1.02
2022-09-28T03:00:12.470Z,1.00
2022-09-28T03:05:44.120Z,1.15
2022-09-28T03:10:45.430Z,1.38
2022-09-28T03:15:38.996Z,1.20
2022-09-28T03:20:33.914Z,1.10
2022-09-28T03:25:27.707Z,1.20
2022-09-28T03:30:21.588Z,1.38
2022-09-28T03:35:16.567Z,1.75
2022-09-28T03:40:11.766Z,2.05
2022-09-28T03:45:05.602Z,2.55
2022-09-28T03:50:00.187Z,1.98
2022-09-28T03:54:54.665Z,1.90
2022-09-28T03:59:47.929Z,2.08
2022-09-28T04:04:41.448Z,1.85
2022-09-28T04:09:34.537Z,2.92
2022-09-28T04:14:28.341Z,1.60
2022-09-28T04:19:22.796Z,1.88
2022-09-28T04:24:47.408Z,2.30
2022-09-28T04:29:44.726Z,1.95
2022-09-28T04:34:43.877Z,1.90
2022-09-28T04:39:38.904Z,2.05
2022-09-28T04:44:33.390Z,2.00
2022-09-28T04:49:32.158Z,1.83
2022-09-28T04:54:32.758Z,2.10
2022-09-28T04:59:26.567Z,1.80
2022-09-28T05:04:22.371Z,1.98
2022-09-28T05:09:38.671Z,1.65
2022-09-28T05:14:31.631Z,1.95
2022-09-28T05:19:25.267Z,2.10
2022-09-28T05:24:19.768Z,2.70
2022-09-28T05:29:17.416Z,2.30
2022-09-28T05:34:13.104Z,2.72
2022-09-28T05:39:06.291Z,2.38
2022-09-28T05:44:00.884Z,2.13
2022-09-28T05:48:56.248Z,2.58
2022-09-28T05:53:50.037Z,2.05
2022-09-28T05:58:45.011Z,1.80
2022-09-28T06:03:38.935Z,1.73
2022-09-28T06:08:33.425Z,2.08
2022-09-28T06:13:40.547Z,2.50
2022-09-28T06:18:34.040Z,2.85
2022-09-28T06:23:42.019Z,2.70
2022-09-28T06:28:38.500Z,2.58
2022-09-28T06:33:32.888Z,2.85
2022-09-28T06:38:25.428Z,2.45
2022-09-28T06:43:18.745Z,2.13
2022-09-28T06:48:32.301Z,2.13
2022-09-28T06:53:26.005Z,3.08
2022-09-28T06:58:27.525Z,3.20
2022-09-28T07:03:24.953Z,2.63
2022-09-28T07:08:29.124Z,2.60
2022-09-28T07:13:51.756Z,2.42
2022-09-28T07:18:49.464Z,2.40
2022-09-28T07:23:52.570Z,2.13
2022-09-28T07:28:49.466Z,2.97
2022-09-28T07:33:56.552Z,2.58
2022-09-28T07:39:00.641Z,2.20
2022-09-28T07:43:55.198Z,2.13
2022-09-28T07:48:49.995Z,2.17
2022-09-28T07:53:54.878Z,2.25
2022-09-28T07:59:06.909Z,1.83
2022-09-28T08:04:06.710Z,2.13
2022-09-28T08:09:02.330Z,2.08
2022-09-28T08:14:15.841Z,4.72
2022-09-28T08:19:25.701Z,4.57
2022-09-28T08:24:19.983Z,4.43
2022-09-28T08:29:15.309Z,4.07
2022-09-28T08:34:23.555Z,3.13
2022-09-28T08:39:35.995Z,4.30
2022-09-28T08:44:47.655Z,4.40
2022-09-28T08:50:15.425Z,2.97
2022-09-28T08:55:47.561Z,3.40
2022-09-28T09:00:48.318Z,3.00
2022-09-28T09:06:20.927Z,3.10
2022-09-28T09:11:50.800Z,3.95
2022-09-28T09:17:21.637Z,3.35
2022-09-28T09:22:40.796Z,4.75
2022-09-28T09:27:49.655Z,4.45
2022-09-28T09:33:05.316Z,4.65
2022-09-28T09:38:30.853Z,5.25
2022-09-28T09:43:47.397Z,4.07
2022-09-28T09:49:22.164Z,4.07
2022-09-28T09:54:39.808Z,4.32
2022-09-28T09:59:40.542Z,4.43
2022-09-28T10:04:47.446Z,3.90
2022-09-28T10:09:50.915Z,3.35
2022-09-28T10:14:51.924Z,2.58
2022-09-28T10:19:45.123Z,3.15
2022-09-28T10:29:54.342Z,3.33
2022-09-28T10:34:50.876Z,2.17
2022-09-28T10:39:56.817Z,2.75
2022-09-28T10:44:59.415Z,1.95
2022-09-28T10:50:03.480Z,1.85
2022-09-28T10:54:58.132Z,1.60
2022-09-28T10:59:52.010Z,2.42
2022-09-28T11:04:55.915Z,2.20
2022-09-28T11:09:50.548Z,2.00
2022-09-28T11:14:43.845Z,1.73
2022-09-28T11:19:42.769Z,1.77
2022-09-28T11:24:42.555Z,1.90
2022-09-28T11:29:42.310Z,1.65
2022-09-28T11:34:59.701Z,1.63
2022-09-28T11:40:19.209Z,1.90
2022-09-28T11:45:41.537Z,2.72
2022-09-28T11:50:40.381Z,144.27
2022-09-28T11:55:48.278Z,145.32
2022-09-28T12:01:18.599Z,117.90
2022-09-28T12:06:47.361Z,92.55
2022-09-28T12:11:53.598Z,66.05
2022-09-28T12:17:08.040Z,57.60
2022-09-28T12:22:06.682Z,52.40
2022-09-28T12:27:12.316Z,46.10
2022-09-28T12:32:18.323Z,39.10
2022-09-28T12:37:59.417Z,37.83
2022-09-28T12:48:02.679Z,32.90
2022-09-28T12:53:14.444Z,31.88
2022-09-28T12:58:29.545Z,30.92
2022-09-28T13:03:48.461Z,26.00
2022-09-28T13:09:10.642Z,24.52
2022-09-28T13:14:31.711Z,24.90
2022-09-28T13:24:32.745Z,20.52
2022-09-28T13:29:28.502Z,18.67
2022-09-28T13:34:31.869Z,19.17
2022-09-28T13:39:59.436Z,16.95
2022-09-28T13:44:55.415Z,15.93
2022-09-28T13:50:01.052Z,14.68
2022-09-28T13:55:02.536Z,14.20
2022-09-28T14:00:39.867Z,14.13
2022-09-28T14:05:47.991Z,13.52
2022-09-28T14:10:54.757Z,12.27
2022-09-28T14:15:49.129Z,11.60
2022-09-28T14:21:01.078Z,13.30
2022-09-28T14:26:45.642Z,11.68
2022-09-28T14:31:44.053Z,10.88
2022-09-28T14:37:07.994Z,10.77
2022-09-28T14:42:09.756Z,9.40
2022-09-28T14:47:39.712Z,10.15
2022-09-28T14:52:47.192Z,9.10
2022-09-28T14:57:43.446Z,9.73
2022-09-28T15:02:39.163Z,10.13
2022-09-28T15:07:48.604Z,8.55
2022-09-28T15:12:45.271Z,7.53
2022-09-28T15:17:40.496Z,7.95
2022-09-28T15:22:37.203Z,8.02
2022-09-28T15:27:38.630Z,8.02
2022-09-28T15:32:32.334Z,7.72
2022-09-28T15:37:29.689Z,8.07
2022-09-28T15:42:23.737Z,8.23
2022-09-28T15:47:26.638Z,6.97
2022-09-28T15:52:42.254Z,8.30
2022-09-28T15:57:40.952Z,6.90
2022-09-28T16:02:35.812Z,7.50
2022-09-28T16:07:39.289Z,6.70
2022-09-28T16:12:37.342Z,6.47
2022-09-28T16:17:35.594Z,6.35
2022-09-28T16:22:29.473Z,6.05
2022-09-28T16:27:31.829Z,5.72
2022-09-28T16:32:27.529Z,6.20
2022-09-28T16:37:34.520Z,5.93
2022-09-28T16:42:28.949Z,5.90
2022-09-28T16:47:21.960Z,5.60
2022-09-28T16:52:34.345Z,5.22
2022-09-28T16:57:27.889Z,5.70
2022-09-28T17:02:45.785Z,5.13
2022-09-28T17:07:40.339Z,4.72
2022-09-28T17:12:33.772Z,5.40
2022-09-28T17:17:30.163Z,4.55
2022-09-28T17:22:28.181Z,4.93
2022-09-28T17:27:22.515Z,4.60
2022-09-28T17:32:20.183Z,4.57
2022-09-28T17:37:15.467Z,4.20
2022-09-28T17:42:08.761Z,4.75
2022-09-28T17:47:02.912Z,4.28
2022-09-28T17:51:57.301Z,4.28
2022-09-28T17:56:51.580Z,3.80
2022-09-28T18:01:44.535Z,4.55
2022-09-28T18:06:42.009Z,4.07
2022-09-28T18:11:36.185Z,3.95
2022-09-28T18:16:30.359Z,3.92
2022-09-28T18:21:23.928Z,3.88
2022-09-28T18:26:19.496Z,3.25
2022-09-28T18:31:15.150Z,3.85
2022-09-28T18:36:08.687Z,3.53
2022-09-28T18:41:28.819Z,3.25
2022-09-28T18:46:22.757Z,3.67
2022-09-28T18:51:16.688Z,3.30
2022-09-28T18:56:12.632Z,2.55
2022-09-28T19:01:29.502Z,3.15
2022-09-28T19:06:24.281Z,3.15
2022-09-28T19:11:18.040Z,3.00
2022-09-28T19:16:41.206Z,3.58
2022-09-28T19:21:35.436Z,2.70
2022-09-28T19:26:30.173Z,2.63
2022-09-28T19:31:23.542Z,2.60
2022-09-28T19:36:20.640Z,3.25
2022-09-28T19:41:39.028Z,2.78
2022-09-28T19:46:35.079Z,2.65
2022-09-28T19:51:29.104Z,2.50
2022-09-28T19:56:22.592Z,2.53
2022-09-28T20:01:17.124Z,2.30
2022-09-28T20:06:12.731Z,2.40
2022-09-28T20:11:12.943Z,2.45
2022-09-28T20:16:10.180Z,2.50
2022-09-28T20:21:05.657Z,2.75
2022-09-28T20:25:59.615Z,2.70
2022-09-28T20:30:53.315Z,2.47
2022-09-28T20:35:47.483Z,2.40
2022-09-28T20:40:42.818Z,2.85
2022-09-28T20:45:37.919Z,2.55
2022-09-28T20:50:35.695Z,2.70
2022-09-28T20:55:29.755Z,2.08
2022-09-28T21:00:23.640Z,2.10
2022-09-28T21:05:18.073Z,2.17
2022-09-28T21:10:11.902Z,2.30
2022-09-28T21:15:07.895Z,2.28
2022-09-28T21:20:02.651Z,1.98
2022-09-28T21:24:55.406Z,1.92
2022-09-28T21:29:48.664Z,1.90
2022-09-28T21:34:42.679Z,2.28
2022-09-28T21:39:35.865Z,1.73
2022-09-28T21:44:29.777Z,1.83
2022-09-28T21:49:24.213Z,3.00
2022-09-28T21:54:18.570Z,1.90
2022-09-28T21:59:12.918Z,1.85
2022-09-28T22:04:11.353Z,1.77
2022-09-28T22:09:06.663Z,1.65
2022-09-28T22:14:00.506Z,2.00
2022-09-28T22:18:53.848Z,2.22
2022-09-28T22:23:47.251Z,1.50
2022-09-28T22:28:45.128Z,1.85
2022-09-28T22:33:38.701Z,1.80
2022-09-28T22:38:32.666Z,1.85
2022-09-28T22:43:26.429Z,2.10
2022-09-28T22:48:25.372Z,1.30
2022-09-28T22:53:20.121Z,1.52
2022-09-28T22:58:14.583Z,1.55
2022-09-28T23:03:09.143Z,1.60
2022-09-28T23:08:04.156Z,1.55
2022-09-28T23:12:58.956Z,1.88
2022-09-28T23:17:56.021Z,1.50
2022-09-28T23:22:49.599Z,1.45
2022-09-28T23:27:50.415Z,1.65
2022-09-28T23:32:43.266Z,1.50
2022-09-28T23:37:37.176Z,1.20
2022-09-28T23:42:30.521Z,1.50
2022-09-28T23:47:24.153Z,1.40
2022-09-28T23:52:18.475Z,1.48
2022-09-28T23:57:11.992Z,1.50
